Time;durP1;ratioP1;P1;durP2;ratioP2;P2;SDS_P1;SDS_P2;PMS_P1;PMS_P2;Temp;Humidity;BMP_temperature;BMP_pressure;BME280_temperature;BME280_humidity;BME280_pressure;Samples;Min_cycle;Max_cycle;Signal;HPM_P1;HPM_P2
2023/03/15 00:01:33;;;;;;;4.72;1.50;;;;;;;5.09;63.63;99165.06;4991667;28;20050;-78
2023/03/15 00:04:00;;;;;;;7.00;2.35;;;;;;;5.14;63.52;99168.31;4991780;28;20046;-79
2023/03/15 00:06:26;;;;;;;7.70;1.98;;;;;;;5.19;63.58;99162.88;4991097;28;20483;-78
2023/03/15 00:08:53;;;;;;;9.00;1.98;;;;;;;5.22;63.38;99165.38;4989760;28;20046;-78
2023/03/15 00:11:19;;;;;;;6.95;1.77;;;;;;;5.26;63.50;99171.28;4991362;28;20522;-78
2023/03/15 00:13:46;;;;;;;9.68;2.22;;;;;;;5.28;63.42;99178.16;4991697;28;20050;-78
2023/03/15 00:16:16;;;;;;;10.82;2.17;;;;;;;5.30;63.38;99170.25;4991435;28;20058;-79
2023/03/15 00:18:45;;;;;;;5.32;1.63;;;;;;;5.30;63.57;99173.72;4991590;28;20050;-79
2023/03/15 00:21:12;;;;;;;7.65;2.22;;;;;;;5.29;63.72;99164.19;4991265;28;20068;-79
2023/03/15 00:23:39;;;;;;;10.10;2.60;;;;;;;5.29;63.63;99174.63;4991297;28;20075;-79
2023/03/15 00:26:05;;;;;;;10.07;2.20;;;;;;;5.27;63.56;99180.84;4991008;28;20052;-80
2023/03/15 00:28:32;;;;;;;7.95;2.35;;;;;;;5.24;64.21;99176.59;4991267;28;20050;-80
2023/03/15 00:31:25;;;;;;;7.97;2.33;;;;;;;5.14;63.29;99186.59;4974155;28;20064;-79
2023/03/15 00:33:54;;;;;;;9.45;2.35;;;;;;;5.13;64.43;99184.03;4989385;28;20050;-80
2023/03/15 00:36:22;;;;;;;10.60;2.80;;;;;;;5.02;64.75;99185.38;4990913;28;20438;-80
2023/03/15 00:38:51;;;;;;;7.10;2.28;;;;;;;4.94;65.33;99193.50;4990869;28;20129;-79
2023/03/15 00:41:19;;;;;;;8.85;3.10;;;;;;;4.83;65.71;99186.13;4991404;28;20133;-79
2023/03/15 00:43:46;;;;;;;10.63;3.00;;;;;;;4.74;65.96;99194.34;4991080;28;20084;-78
2023/03/15 00:46:14;;;;;;;15.30;2.97;;;;;;;4.64;66.29;99193.06;4990830;28;20068;-80
2023/03/15 00:48:41;;;;;;;9.15;2.70;;;;;;;4.51;66.90;99184.88;4990616;28;20073;-78
2023/03/15 00:51:09;;;;;;;11.70;2.85;;;;;;;4.41;67.11;99189.66;4991216;28;20728;-79
2023/03/15 00:53:38;;;;;;;10.15;3.30;;;;;;;4.30;67.51;99195.28;4991182;28;20101;-79
2023/03/15 00:56:14;;;;;;;7.55;2.72;;;;;;;4.19;68.04;99206.13;4973886;28;20054;-79
2023/03/15 00:58:41;;;;;;;12.18;2.83;;;;;;;4.13;68.75;99199.41;4973446;28;20047;-79
2023/03/15 01:01:14;;;;;;;8.27;2.47;;;;;;;4.07;68.90;99197.03;4991137;28;20050;-80
2023/03/15 01:03:41;;;;;;;10.20;3.40;;;;;;;4.03;69.24;99205.88;4990900;28;20430;-79
2023/03/15 01:06:13;;;;;;;8.55;3.35;;;;;;;4.01;69.71;99216.34;4990756;28;20054;-79
2023/03/15 01:08:40;;;;;;;7.97;3.03;;;;;;;3.99;70.21;99204.28;4991297;28;20065;-80
2023/03/15 01:11:12;;;;;;;9.52;3.05;;;;;;;3.96;70.07;99210.47;4973664;28;20442;-78
2023/03/15 01:13:39;;;;;;;12.13;3.17;;;;;;;3.98;70.51;99210.41;4990888;28;20050;-79
2023/03/15 01:16:07;;;;;;;14.50;3.25;;;;;;;3.97;70.74;99214.78;4990804;28;20403;-79
2023/03/15 01:18:36;;;;;;;6.57;2.53;;;;;;;3.99;71.38;99218.16;4437766;22;20301;-81
2023/03/15 01:21:05;;;;;;;8.95;2.63;;;;;;;4.01;71.56;99226.75;4963637;23;20057;-79
2023/03/15 01:23:32;;;;;;;11.82;2.67;;;;;;;4.04;71.73;99216.22;5021220;28;20125;-78
2023/03/15 01:26:00;;;;;;;9.27;2.65;;;;;;;4.08;71.64;99216.13;5014000;28;20065;-79
2023/03/15 01:28:27;;;;;;;6.90;2.65;;;;;;;4.11;71.67;99224.66;5005052;28;20050;-79
2023/03/15 01:30:54;;;;;;;7.05;2.50;;;;;;;4.13;71.85;99216.78;5014189;28;20072;-80
2023/03/15 01:33:20;;;;;;;5.22;2.20;;;;;;;4.16;71.90;99227.09;5014014;28;20053;-79
2023/03/15 01:35:47;;;;;;;9.82;3.08;;;;;;;4.18;71.73;99227.88;5014094;28;20437;-79
2023/03/15 01:38:14;;;;;;;7.07;2.72;;;;;;;4.20;71.81;99226.06;5013674;28;20647;-80
2023/03/15 01:40:45;;;;;;;4.30;2.40;;;;;;;4.21;71.34;99238.19;5013876;28;20049;-79
2023/03/15 01:43:17;;;;;;;4.65;2.65;;;;;;;4.25;71.81;99238.88;5013647;28;20569;-79
2023/03/15 01:46:01;;;;;;;5.85;2.28;;;;;;;4.26;71.84;99241.44;5007281;28;20077;-78
2023/03/15 01:48:43;;;;;;;6.03;2.20;;;;;;;4.30;71.75;99248.22;5006087;28;20474;-79
2023/03/15 01:51:20;;;;;;;2.65;1.92;;;;;;;4.36;71.94;99241.94;5013830;28;20046;-79
2023/03/15 01:53:56;;;;;;;5.80;2.13;;;;;;;4.39;71.77;99254.00;5013662;28;20421;-79
2023/03/15 01:56:23;;;;;;;4.38;2.00;;;;;;;4.45;72.19;99248.53;5013739;28;20065;-79
2023/03/15 01:58:52;;;;;;;8.63;2.50;;;;;;;4.47;72.06;99253.69;5013578;28;20058;-79
2023/03/15 02:01:20;;;;;;;5.50;2.80;;;;;;;4.51;72.29;99248.28;5013735;28;20438;-79
2023/03/15 02:03:52;;;;;;;2.35;1.77;;;;;;;4.54;71.86;99256.00;5013403;28;20042;-79
2023/03/15 02:06:20;;;;;;;6.17;2.53;;;;;;;4.56;71.58;99264.59;5013700;28;20061;-80
2023/03/15 02:08:53;;;;;;;4.18;2.60;;;;;;;4.55;71.32;99260.28;5007369;28;20050;-80
2023/03/15 02:11:23;;;;;;;5.38;2.58;;;;;;;4.59;71.77;99262.78;5013562;28;20055;-79
2023/03/15 02:13:51;;;;;;;3.38;2.38;;;;;;;4.59;71.96;99262.78;5013261;28;20050;-78
2023/03/15 02:16:19;;;;;;;5.13;2.50;;;;;;;4.61;71.73;99263.56;5013103;28;20486;-79
2023/03/15 02:18:46;;;;;;;4.05;2.58;;;;;;;4.61;71.79;99263.56;5012937;28;20042;-79
2023/03/15 02:21:37;;;;;;;3.10;2.30;;;;;;;4.58;70.81;99264.53;5012930;28;20409;-79
2023/03/15 02:24:21;;;;;;;6.18;2.47;;;;;;;4.60;70.90;99274.91;5013328;28;20041;-79
2023/03/15 02:26:53;;;;;;;3.55;2.42;;;;;;;4.63;71.53;99280.00;5012766;28;20062;-80
2023/03/15 02:29:22;;;;;;;3.25;2.40;;;;;;;4.64;71.44;99272.09;5012755;28;20398;-78
2023/03/15 02:31:50;;;;;;;5.65;3.15;;;;;;;4.65;71.43;99273.81;5011991;28;20482;-79
2023/03/15 02:34:17;;;;;;;4.40;2.70;;;;;;;4.64;71.44;99279.09;5010960;28;20100;-79
2023/03/15 02:36:44;;;;;;;6.40;3.00;;;;;;;4.64;71.67;99281.69;5012681;28;20081;-79
2023/03/15 02:39:16;;;;;;;3.78;2.53;;;;;;;4.63;71.57;99285.22;5012819;28;20046;-79
2023/03/15 02:41:47;;;;;;;5.72;2.60;;;;;;;4.64;71.70;99289.50;5012871;28;20065;-79
2023/03/15 02:44:20;;;;;;;6.60;2.80;;;;;;;4.65;71.74;99296.41;5013241;28;20042;-79
2023/03/15 02:46:50;;;;;;;4.32;2.92;;;;;;;4.66;71.67;99290.28;5012455;28;20064;-79
2023/03/15 02:49:20;;;;;;;4.13;2.67;;;;;;;4.66;71.61;99291.16;5012634;28;20050;-79
2023/03/15 02:51:47;;;;;;;5.45;3.30;;;;;;;4.68;72.01;99304.94;5012559;28;20092;-79
2023/03/15 02:54:13;;;;;;;7.95;3.35;;;;;;;4.68;71.93;99306.72;5010309;28;20955;-79
2023/03/15 02:56:39;;;;;;;3.95;2.80;;;;;;;4.69;71.88;99311.03;4990610;28;20050;-80
2023/03/15 02:59:06;;;;;;;5.75;3.15;;;;;;;4.71;72.08;99317.00;4998075;28;20046;-79
2023/03/15 03:01:35;;;;;;;4.47;3.10;;;;;;;4.72;71.97;99317.88;4996011;28;20050;-78
2023/03/15 03:04:02;;;;;;;5.65;3.05;;;;;;;4.74;72.04;99327.34;4994834;28;20049;-79
2023/03/15 03:06:29;;;;;;;4.30;3.05;;;;;;;4.76;71.81;99330.75;5012201;28;20704;-79
2023/03/15 03:08:56;;;;;;;7.47;3.20;;;;;;;4.77;71.83;99335.03;5012462;28;20129;-78
2023/03/15 03:11:22;;;;;;;5.55;3.30;;;;;;;4.78;71.85;99330.66;5012472;28;20050;-78
2023/03/15 03:13:50;;;;;;;5.65;3.03;;;;;;;4.78;72.15;99331.50;5011986;28;20497;-79
2023/03/15 03:16:16;;;;;;;6.10;3.35;;;;;;;4.79;71.92;99341.03;5012048;28;20494;-80
2023/03/15 03:18:43;;;;;;;5.40;3.42;;;;;;;4.80;71.85;99339.28;5011814;28;20060;-80
2023/03/15 03:21:09;;;;;;;5.50;3.40;;;;;;;4.80;71.93;99345.34;5011860;28;20049;-79
2023/03/15 03:23:36;;;;;;;4.97;3.42;;;;;;;4.79;71.59;99346.25;4994840;28;20061;-80
2023/03/15 03:26:03;;;;;;;5.03;3.75;;;;;;;4.79;71.90;99351.47;4994457;28;20089;-79
2023/03/15 03:28:31;;;;;;;5.82;3.67;;;;;;;4.80;71.94;99354.94;5011903;28;20057;-79
2023/03/15 03:30:58;;;;;;;5.47;3.95;;;;;;;4.80;71.76;99354.94;5011743;28;20616;-79
2023/03/15 03:33:24;;;;;;;4.88;3.50;;;;;;;4.81;72.04;99364.44;5011895;28;20406;-79
2023/03/15 03:35:52;;;;;;;5.30;3.33;;;;;;;4.81;72.14;99373.13;4993166;28;20066;-79
2023/03/15 03:38:19;;;;;;;5.60;3.35;;;;;;;4.83;71.89;99381.72;4992218;28;20072;-79
2023/03/15 03:40:45;;;;;;;6.68;3.78;;;;;;;4.83;72.10;99386.94;4992017;28;20056;-79
2023/03/15 03:43:12;;;;;;;4.88;3.85;;;;;;;4.86;72.12;99390.34;4992014;28;20083;-79
2023/03/15 03:45:38;;;;;;;5.93;3.47;;;;;;;4.88;72.23;99396.34;4992076;28;20050;-79
2023/03/15 03:48:05;;;;;;;5.38;3.97;;;;;;;4.88;72.27;99397.19;4974400;28;20050;-79
2023/03/15 03:50:32;;;;;;;6.97;4.53;;;;;;;4.90;72.23;99405.81;4993100;28;20068;-79
2023/03/15 03:52:58;;;;;;;5.93;3.90;;;;;;;4.91;72.07;99409.28;4975052;28;20050;-79
2023/03/15 03:55:25;;;;;;;5.05;3.78;;;;;;;4.93;72.08;99412.66;4992090;28;20047;-80
2023/03/15 03:57:54;;;;;;;8.82;4.10;;;;;;;4.93;72.21;99413.50;4991697;28;20050;-79
2023/03/15 04:00:21;;;;;;;6.63;3.92;;;;;;;4.95;72.08;99419.53;4992618;28;20049;-79
2023/03/15 04:02:47;;;;;;;5.68;3.83;;;;;;;4.97;72.16;99422.06;4974444;28;20073;-80
2023/03/15 04:05:14;;;;;;;6.57;3.90;;;;;;;4.98;71.74;99426.38;4991773;28;20054;-80
2023/03/15 04:07:40;;;;;;;7.00;4.15;;;;;;;4.98;71.67;99422.91;4991800;28;20081;-79
2023/03/15 04:10:13;;;;;;;6.75;4.50;;;;;;;4.97;71.72;99421.22;4991890;28;20078;-79
2023/03/15 04:12:43;;;;;;;5.90;3.63;;;;;;;4.95;71.29;99431.72;4991806;28;20058;-79
2023/03/15 04:15:10;;;;;;;8.05;4.85;;;;;;;4.94;71.47;99430.03;4991403;28;20080;-79
2023/03/15 04:17:38;;;;;;;6.63;4.13;;;;;;;4.92;71.42;99440.50;4974425;28;20050;-79
2023/03/15 04:20:07;;;;;;;9.00;4.38;;;;;;;4.91;71.47;99440.56;4981970;28;20053;-79
2023/03/15 04:22:33;;;;;;;8.63;4.32;;;;;;;4.89;71.42;99447.59;4991440;28;20057;-79
2023/03/15 04:25:00;;;;;;;9.57;4.88;;;;;;;4.86;71.42;99455.56;4991319;28;20134;-79
2023/03/15 04:27:28;;;;;;;7.55;5.07;;;;;;;4.82;71.60;99454.78;4991256;28;20050;-79
2023/03/15 04:29:54;;;;;;;6.90;4.68;;;;;;;4.81;71.75;99458.31;4991418;28;20077;-79
2023/03/15 04:32:22;;;;;;;9.68;5.28;;;;;;;4.80;71.79;99457.50;4991528;28;20058;-79
2023/03/15 04:34:54;;;;;;;9.48;5.28;;;;;;;4.79;71.96;99460.97;4985604;28;20105;-80
2023/03/15 04:37:21;;;;;;;8.10;5.57;;;;;;;4.80;71.88;99464.44;4991354;28;20443;-79
2023/03/15 04:39:47;;;;;;;10.43;5.40;;;;;;;4.80;72.13;99465.31;4991399;28;20479;-78
2023/03/15 04:42:14;;;;;;;6.28;4.90;;;;;;;4.79;71.88;99471.41;4988242;28;20100;-78
2023/03/15 04:44:40;;;;;;;7.45;5.07;;;;;;;4.80;72.19;99474.88;4991132;28;20479;-79
2023/03/15 04:47:07;;;;;;;8.50;5.68;;;;;;;4.80;72.09;99475.75;4990989;28;20046;-79
2023/03/15 04:49:33;;;;;;;10.15;6.25;;;;;;;4.80;72.04;99475.75;4991231;28;20448;-79
2023/03/15 04:52:00;;;;;;;8.25;5.80;;;;;;;4.80;71.95;99482.72;4986758;28;20066;-80
2023/03/15 04:54:26;;;;;;;10.95;5.55;;;;;;;4.79;72.14;99484.44;4993621;28;20046;-79
2023/03/15 04:56:53;;;;;;;10.27;6.25;;;;;;;4.79;71.97;99489.66;4994662;28;20058;-78
2023/03/15 04:59:20;;;;;;;7.93;5.88;;;;;;;4.78;72.20;99490.59;4995286;28;20050;-79
2023/03/15 05:01:46;;;;;;;8.25;5.70;;;;;;;4.78;72.44;99487.13;4995031;28;20485;-79
2023/03/15 05:04:13;;;;;;;8.95;5.25;;;;;;;4.77;72.14;99488.88;4994447;28;20050;-79
2023/03/15 05:06:39;;;;;;;7.85;5.55;;;;;;;4.78;71.98;99489.72;4987357;28;20414;-79
2023/03/15 05:09:06;;;;;;;10.02;6.07;;;;;;;4.79;72.39;99491.44;4994930;28;20091;-80
2023/03/15 05:11:33;;;;;;;9.65;5.80;;;;;;;4.79;72.35;99499.25;4994886;28;20120;-80
2023/03/15 05:13:59;;;;;;;9.52;5.38;;;;;;;4.80;72.40;99496.59;4995117;28;20054;-79
2023/03/15 05:16:26;;;;;;;11.20;5.95;;;;;;;4.81;72.21;99500.91;4994700;28;20053;-79
2023/03/15 05:18:52;;;;;;;8.15;6.07;;;;;;;4.82;72.08;99513.03;4994289;28;20050;-79
2023/03/15 05:21:19;;;;;;;9.88;5.30;;;;;;;4.82;72.14;99514.78;4994953;28;20054;-79
2023/03/15 05:23:45;;;;;;;8.88;5.80;;;;;;;4.81;71.95;99519.16;4988637;28;20050;-79
2023/03/15 05:26:13;;;;;;;9.40;5.28;;;;;;;4.80;71.96;99519.22;4994499;28;20142;-81
2023/03/15 05:28:39;;;;;;;8.75;5.93;;;;;;;4.81;72.10;99519.16;4994600;28;20057;-79
2023/03/15 05:31:06;;;;;;;12.80;6.97;;;;;;;4.79;72.01;99523.56;4994665;28;20452;-80
2023/03/15 05:33:32;;;;;;;9.85;5.70;;;;;;;4.79;71.94;99530.56;4994679;28;20051;-80
2023/03/15 05:35:59;;;;;;;13.13;6.65;;;;;;;4.77;72.14;99538.44;4989828;28;20050;-79
2023/03/15 05:38:26;;;;;;;13.20;6.35;;;;;;;4.78;71.85;99544.47;4985144;28;20046;-80
2023/03/15 05:40:53;;;;;;;12.88;5.88;;;;;;;4.77;71.68;99554.09;4994755;28;20089;-81
2023/03/15 05:43:20;;;;;;;7.82;6.20;;;;;;;4.74;72.04;99559.41;4992935;28;20406;-79
2023/03/15 05:45:47;;;;;;;12.85;6.15;;;;;;;4.72;71.80;99550.78;4994218;28;20213;-79
2023/03/15 05:48:15;;;;;;;10.55;5.97;;;;;;;4.71;71.73;99564.72;4991400;28;20066;-79
2023/03/15 05:50:42;;;;;;;10.75;5.65;;;;;;;4.68;71.98;99573.50;4987276;28;20133;-79
2023/03/15 05:53:09;;;;;;;9.60;5.55;;;;;;;4.67;71.76;99576.16;4994307;28;20617;-79
2023/03/15 05:55:36;;;;;;;11.07;6.55;;;;;;;4.64;71.96;99584.94;4986099;28;20046;-78
2023/03/15 05:58:03;;;;;;;10.85;6.32;;;;;;;4.63;71.94;99592.84;4992604;28;20058;-78
2023/03/15 06:00:30;;;;;;;11.50;6.20;;;;;;;4.61;71.98;99602.47;4985788;28;20061;-79
2023/03/15 06:02:57;;;;;;;11.57;6.65;;;;;;;4.60;72.07;99603.38;4992968;28;20100;-79
2023/03/15 06:05:23;;;;;;;15.98;6.90;;;;;;;4.59;72.33;99601.69;4989770;28;20470;-80
2023/03/15 06:07:50;;;;;;;9.88;6.90;;;;;;;4.58;72.26;99613.84;4974066;28;20054;-79
2023/03/15 06:10:16;;;;;;;9.48;6.60;;;;;;;4.57;72.46;99615.59;4974491;28;20042;-79
2023/03/15 06:12:43;;;;;;;11.60;6.40;;;;;;;4.58;72.52;99619.06;4974548;28;20042;-79
2023/03/15 06:15:10;;;;;;;10.85;6.65;;;;;;;4.59;72.80;99627.75;4973945;28;20058;-79
2023/03/15 06:17:37;;;;;;;10.27;6.90;;;;;;;4.59;72.85;99633.78;4973948;28;20057;-79
2023/03/15 06:20:04;;;;;;;8.35;6.07;;;;;;;4.62;72.85;99640.66;4973806;28;20407;-79
2023/03/15 06:22:30;;;;;;;11.20;7.22;;;;;;;4.63;72.87;99629.34;4974128;28;20483;-80
2023/03/15 06:24:57;;;;;;;8.68;6.93;;;;;;;4.64;72.82;99636.25;4973623;28;20047;-81
2023/03/15 06:27:23;;;;;;;11.73;7.35;;;;;;;4.65;72.46;99640.56;4956401;28;20054;-80
2023/03/15 06:29:50;;;;;;;11.15;7.22;;;;;;;4.65;72.50;99638.81;4973907;28;20492;-80
2023/03/15 06:32:16;;;;;;;10.38;6.65;;;;;;;4.67;72.62;99638.72;4973700;28;20447;-80
2023/03/15 06:34:43;;;;;;;13.50;7.78;;;;;;;4.67;72.46;99646.56;4956066;28;20050;-80
2023/03/15 06:37:12;;;;;;;11.85;7.32;;;;;;;4.67;72.42;99644.81;4973256;28;20479;-80
2023/03/15 06:39:45;;;;;;;10.82;7.53;;;;;;;4.68;72.35;99653.50;4973899;28;20059;-80
2023/03/15 06:42:12;;;;;;;12.90;7.45;;;;;;;4.67;72.07;99657.00;4974017;28;20058;-80
2023/03/15 06:44:40;;;;;;;12.30;7.10;;;;;;;4.64;72.16;99663.16;4973338;28;20054;-81
2023/03/15 06:47:07;;;;;;;13.15;7.45;;;;;;;4.65;72.15;99658.81;4972637;28;20055;-80
2023/03/15 06:49:34;;;;;;;12.00;7.68;;;;;;;4.64;72.45;99663.16;4956038;28;20051;-78
2023/03/15 06:52:01;;;;;;;10.88;7.38;;;;;;;4.65;72.35;99671.84;4973167;28;20050;-80
2023/03/15 06:54:28;;;;;;;14.10;7.82;;;;;;;4.64;71.93;99668.38;4973525;28;20058;-80
2023/03/15 06:56:54;;;;;;;10.55;7.03;;;;;;;4.63;72.02;99671.88;4972426;28;20105;-80
2023/03/15 06:59:21;;;;;;;12.38;7.70;;;;;;;4.64;72.01;99680.56;4973380;28;20089;-80
2023/03/15 07:01:48;;;;;;;10.32;6.72;;;;;;;4.62;71.94;99675.41;4973412;28;20510;-80
2023/03/15 07:04:15;;;;;;;10.85;6.25;;;;;;;4.60;71.78;99682.41;4973694;28;20105;-81
2023/03/15 07:06:41;;;;;;;10.93;6.22;;;;;;;4.59;71.76;99687.72;4972326;28;20117;-80
2023/03/15 07:09:08;;;;;;;8.57;5.78;;;;;;;4.56;72.18;99696.44;4973076;28;20055;-80
2023/03/15 07:11:34;;;;;;;15.25;7.07;;;;;;;4.56;72.22;99691.25;4955013;28;20130;-80
2023/03/15 07:14:00;;;;;;;12.73;6.80;;;;;;;4.54;72.29;99704.34;4955768;28;20050;-80
2023/03/15 07:16:27;;;;;;;11.98;7.20;;;;;;;4.54;72.20;99719.13;4971897;28;20054;-80
2023/03/15 07:21:25;;;;;;;15.27;6.35;;;;;;;4.52;71.97;99723.56;4976621;22;20050;-77
2023/03/15 07:23:52;;;;;;;10.63;6.07;;;;;;;4.51;72.47;99719.22;5031553;28;20060;-77
2023/03/15 07:26:19;;;;;;;11.77;6.00;;;;;;;4.50;72.23;99726.22;5031299;28;20097;-77
2023/03/15 07:28:46;;;;;;;13.07;6.45;;;;;;;4.51;72.45;99727.03;5031389;28;20064;-78
2023/03/15 07:31:13;;;;;;;13.25;6.00;;;;;;;4.52;72.24;99732.22;5031570;28;20132;-77
2023/03/15 07:33:39;;;;;;;16.92;5.68;;;;;;;4.51;72.34;99733.13;5031554;28;20560;-77
2023/03/15 07:36:07;;;;;;;9.52;6.15;;;;;;;4.53;72.66;99744.34;5031410;28;20060;-77
2023/03/15 07:38:34;;;;;;;10.82;5.70;;;;;;;4.55;72.71;99752.97;5031120;28;20088;-78
2023/03/15 07:41:05;;;;;;;9.48;5.95;;;;;;;4.56;72.96;99749.47;5031636;28;20053;-78
2023/03/15 07:43:32;;;;;;;11.75;6.65;;;;;;;4.61;73.22;99757.13;5031532;28;20057;-78
2023/03/15 07:46:00;;;;;;;10.25;5.70;;;;;;;4.65;73.21;99763.09;5031025;28;20064;-78
2023/03/15 07:48:28;;;;;;;8.57;5.43;;;;;;;4.71;73.04;99767.28;5031363;28;20072;-77
2023/03/15 07:50:55;;;;;;;10.00;6.07;;;;;;;4.75;73.32;99769.72;5031452;28;20053;-78
2023/03/15 07:53:22;;;;;;;10.93;5.25;;;;;;;4.79;72.97;99773.09;5031214;28;20049;-79
2023/03/15 07:55:49;;;;;;;8.57;5.63;;;;;;;4.83;73.11;99772.09;5030564;28;20107;-78
2023/03/15 07:58:15;;;;;;;8.80;5.28;;;;;;;4.87;73.00;99776.31;5030729;28;20054;-79
2023/03/15 08:00:45;;;;;;;10.68;5.20;;;;;;;4.91;72.73;99783.13;5031379;28;20057;-80
2023/03/15 08:03:12;;;;;;;9.73;4.68;;;;;;;4.94;72.85;99782.16;5030989;28;20429;-79
2023/03/15 08:05:38;;;;;;;8.38;4.68;;;;;;;4.98;72.81;99791.59;5029833;28;20414;-79
2023/03/15 08:08:06;;;;;;;15.82;5.03;;;;;;;5.01;72.61;99798.47;5010331;28;20123;-78
2023/03/15 08:10:32;;;;;;;10.30;4.68;;;;;;;5.04;72.64;99807.03;5029903;28;20509;-78
2023/03/15 08:12:59;;;;;;;10.30;5.28;;;;;;;5.09;72.89;99809.50;5030486;28;20045;-78
2023/03/15 08:15:25;;;;;;;12.35;5.00;;;;;;;5.13;72.66;99811.09;5030822;28;20053;-77
2023/03/15 08:17:52;;;;;;;12.30;4.82;;;;;;;5.16;72.59;99805.75;5013132;28;20073;-78
2023/03/15 08:20:19;;;;;;;9.77;4.38;;;;;;;5.21;72.61;99811.66;5030717;28;20057;-79
2023/03/15 08:22:50;;;;;;;6.45;4.13;;;;;;;5.23;72.04;99814.22;5030786;28;20058;-79
2023/03/15 08:25:20;;;;;;;9.25;4.38;;;;;;;5.28;72.46;99825.41;5030140;28;20524;-79
2023/03/15 08:27:47;;;;;;;8.15;4.25;;;;;;;5.32;72.65;99827.00;5012013;28;20682;-78
2023/03/15 08:30:15;;;;;;;6.63;4.05;;;;;;;5.38;72.42;99832.91;5030266;28;20136;-79
2023/03/15 08:32:44;;;;;;;10.50;3.83;;;;;;;5.42;72.43;99840.56;5030635;28;20066;-79
2023/03/15 08:35:12;;;;;;;12.68;4.45;;;;;;;5.46;72.21;99836.09;5012736;28;20061;-80
2023/03/15 08:37:45;;;;;;;9.88;3.95;;;;;;;5.50;72.53;99834.22;5013149;28;20069;-79
2023/03/15 08:40:17;;;;;;;9.82;4.32;;;;;;;5.53;71.52;99844.59;5030060;28;20516;-79
2023/03/15 08:42:44;;;;;;;9.40;4.10;;;;;;;5.59;72.60;99850.44;5030625;28;20142;-79
2023/03/15 08:45:11;;;;;;;11.00;3.75;;;;;;;5.65;72.45;99854.59;5030343;28;20057;-80
2023/03/15 08:47:37;;;;;;;8.63;3.40;;;;;;;5.71;72.48;99858.72;5012736;28;20060;-77
2023/03/15 08:50:07;;;;;;;11.25;3.58;;;;;;;5.76;71.72;99862.06;5030180;28;20131;-79
2023/03/15 08:52:34;;;;;;;9.60;3.35;;;;;;;5.82;72.63;99861.81;5030172;28;20053;-78
2023/03/15 08:55:00;;;;;;;7.95;3.35;;;;;;;5.87;72.18;99862.50;5030233;28;20049;-79
2023/03/15 08:57:28;;;;;;;6.63;3.13;;;;;;;5.92;72.20;99862.38;5012767;28;20049;-79
2023/03/15 08:59:55;;;;;;;8.13;2.70;;;;;;;5.97;71.67;99873.50;5030143;28;20059;-79
2023/03/15 09:02:22;;;;;;;7.95;2.60;;;;;;;6.03;71.71;99874.19;5030230;28;20053;-79
2023/03/15 09:04:49;;;;;;;7.38;3.58;;;;;;;6.07;71.84;99881.88;5030204;28;20511;-78
2023/03/15 09:07:18;;;;;;;9.55;3.13;;;;;;;6.12;71.85;99885.19;5029911;28;20867;-78
2023/03/15 09:09:47;;;;;;;5.93;3.17;;;;;;;6.17;71.57;99892.00;5030101;28;20752;-80
2023/03/15 09:12:15;;;;;;;6.13;2.92;;;;;;;6.23;71.13;99884.78;5029996;28;20084;-79
2023/03/15 09:14:42;;;;;;;7.38;2.75;;;;;;;6.29;71.66;99888.94;5012632;28;20057;-79
2023/03/15 09:17:09;;;;;;;7.43;2.92;;;;;;;6.36;71.58;99884.34;5029859;28;20301;-78
2023/03/15 09:19:36;;;;;;;9.98;3.47;;;;;;;6.43;71.81;99892.81;5029778;28;20506;-78
2023/03/15 09:22:02;;;;;;;8.85;3.80;;;;;;;6.50;71.63;99904.72;5030327;28;20057;-79
2023/03/15 09:24:48;;;;;;;7.10;2.63;;;;;;;6.59;71.62;99896.53;5025852;28;20129;-80
2023/03/15 09:27:17;;;;;;;5.95;2.60;;;;;;;6.67;71.48;99895.38;5010100;28;20487;-79
2023/03/15 09:29:43;;;;;;;7.65;2.38;;;;;;;6.73;71.39;99892.53;5010363;28;20058;-78
2023/03/15 09:32:10;;;;;;;6.00;2.75;;;;;;;6.81;71.23;99898.34;5010298;28;20058;-78
2023/03/15 09:34:37;;;;;;;7.72;2.60;;;;;;;6.89;71.18;99904.09;5009359;28;20085;-79
2023/03/15 09:37:08;;;;;;;8.95;2.53;;;;;;;6.96;70.91;99896.88;5009832;28;20093;-79
2023/03/15 09:39:34;;;;;;;8.43;2.90;;;;;;;7.06;71.05;99899.13;5010861;28;20109;-79
2023/03/15 09:42:04;;;;;;;6.18;2.72;;;;;;;7.15;70.87;99899.59;5014030;28;20077;-79
2023/03/15 09:44:42;;;;;;;7.93;2.55;;;;;;;7.24;70.75;99895.75;5013898;28;20108;-79
2023/03/15 09:47:30;;;;;;;11.07;2.63;;;;;;;7.32;66.73;99907.69;5013520;28;20057;-79
2023/03/15 09:50:13;;;;;;;7.28;2.50;;;;;;;7.43;67.59;99905.47;4996352;28;20418;-79
2023/03/15 09:52:44;;;;;;;;;;;;;;;7.52;65.03;99899.00;5006154;28;20056;-79
2023/03/15 09:55:27;;;;;;;5.82;1.83;;;;;;;7.61;66.11;99901.22;5043765;28;19924;-79
2023/03/15 09:58:01;;;;;;;7.47;2.23;;;;;;;7.71;69.95;99893.84;5036165;28;20045;-78
2023/03/15 10:00:44;;;;;;;7.15;2.45;;;;;;;7.78;66.72;99895.25;5052672;28;20060;-78
2023/03/15 10:03:25;;;;;;;6.38;2.42;;;;;;;7.89;65.71;99893.94;5052775;28;20053;-79
2023/03/15 10:06:00;;;;;;;7.55;2.35;;;;;;;8.00;65.31;99894.31;5045513;28;20059;-78
2023/03/15 10:08:26;;;;;;;11.35;2.22;;;;;;;8.11;67.64;99896.47;5032190;28;20059;-78
2023/03/15 10:11:07;;;;;;;7.32;2.17;;;;;;;8.12;63.65;99900.81;5033513;28;20107;-79
2023/03/15 10:14:05;;;;;;;6.30;2.17;;;;;;;8.19;65.32;99904.00;5023776;28;20085;-79
2023/03/15 10:16:44;;;;;;;6.22;1.98;;;;;;;8.26;64.00;99912.44;4984744;28;20060;-79
2023/03/15 10:19:37;;;;;;;7.10;2.00;;;;;;;8.31;64.12;99911.31;5012945;28;20062;-78
2023/03/15 10:22:13;;;;;;;5.82;1.67;;;;;;;8.34;63.47;99908.53;5012809;28;20056;-79
2023/03/15 10:25:07;;;;;;;7.95;2.10;;;;;;;8.42;63.81;99916.09;5013176;28;20567;-79
2023/03/15 10:27:40;;;;;;;5.43;1.50;;;;;;;8.46;63.90;99917.63;5011630;28;20513;-79
2023/03/15 10:30:20;;;;;;;7.30;1.52;;;;;;;8.47;60.75;99923.72;5015020;28;20140;-78
2023/03/15 10:32:54;;;;;;;5.43;1.85;;;;;;;8.53;63.45;99927.88;5029270;28;20049;-80
2023/03/15 10:35:21;;;;;;;7.13;1.77;;;;;;;8.56;64.74;99922.50;5039665;28;20330;-79
2023/03/15 10:37:47;;;;;;;5.03;1.70;;;;;;;8.56;64.38;99925.13;5043707;28;20072;-78
2023/03/15 10:40:35;;;;;;;4.75;1.63;;;;;;;8.55;63.85;99920.78;5032790;28;20060;-78
2023/03/15 10:43:16;;;;;;;4.80;1.25;;;;;;;8.53;60.50;99920.00;5032388;28;20524;-78
2023/03/15 10:46:06;;;;;;;4.93;1.73;;;;;;;8.61;62.84;99923.13;5032737;28;20077;-78
2023/03/15 10:48:38;;;;;;;3.10;1.23;;;;;;;8.73;65.04;99919.94;5031942;28;20057;-79
2023/03/15 10:51:26;;;;;;;4.57;1.60;;;;;;;8.86;60.56;99925.44;5031297;28;20483;-79
2023/03/15 10:54:00;;;;;;;4.43;1.38;;;;;;;9.04;61.61;99929.91;5014859;28;20095;-78
2023/03/15 10:56:30;;;;;;;7.22;1.50;;;;;;;9.23;64.51;99933.34;5031971;28;20111;-78
2023/03/15 10:58:58;;;;;;;5.82;1.60;;;;;;;9.40;63.97;99931.66;5036260;28;20051;-78
2023/03/15 11:01:38;;;;;;;3.80;1.33;;;;;;;9.61;64.86;99928.91;5032962;28;20292;-78
2023/03/15 11:04:21;;;;;;;4.82;1.50;;;;;;;9.80;62.73;99925.34;5014347;28;20103;-78
2023/03/15 11:06:49;;;;;;;;;;;;;;;10.00;60.08;99932.19;5014080;28;20058;-78
2023/03/15 11:09:22;;;;;;;4.70;1.27;;;;;;;10.22;62.78;99942.47;5014794;28;19971;-78
2023/03/15 11:11:59;;;;;;;3.85;1.20;;;;;;;10.39;61.13;99944.19;5032052;28;20148;-78
2023/03/15 11:14:57;;;;;;;6.13;1.30;;;;;;;10.55;53.58;99938.13;5024476;28;20119;-78
2023/03/15 11:17:31;;;;;;;5.65;1.20;;;;;;;10.75;58.99;99950.22;5015816;28;20509;-78
2023/03/15 11:20:17;;;;;;;4.22;1.23;;;;;;;10.92;57.42;99958.97;5014356;28;20088;-78
2023/03/15 11:22:44;;;;;;;4.95;1.30;;;;;;;11.05;60.85;99957.34;5032092;28;20418;-79
2023/03/15 11:25:15;;;;;;;7.18;1.25;;;;;;;11.13;59.92;99958.69;5031476;28;20056;-78
2023/03/15 11:27:45;;;;;;;5.05;1.33;;;;;;;11.19;59.69;99961.00;5031160;28;20148;-78
2023/03/15 11:30:14;;;;;;;6.90;1.65;;;;;;;11.30;60.70;99963.88;5032078;28;20061;-78
2023/03/15 11:32:43;;;;;;;5.55;0.95;;;;;;;11.60;64.57;99964.84;5031691;28;20096;-79
2023/03/15 11:35:14;;;;;;;5.32;1.10;;;;;;;12.08;63.28;99958.56;5031162;28;20057;-78
2023/03/15 11:37:49;;;;;;;6.50;1.63;;;;;;;12.69;66.60;99965.44;5031342;28;20107;-79
2023/03/15 11:40:28;;;;;;;3.70;1.20;;;;;;;13.46;60.66;99964.13;5031633;28;20150;-79
2023/03/15 11:42:55;;;;;;;4.63;1.63;;;;;;;14.24;65.84;99964.28;5031410;28;20045;-79
2023/03/15 11:45:32;;;;;;;4.80;1.20;;;;;;;14.83;55.80;99974.28;5030992;28;20050;-79
2023/03/15 11:48:08;;;;;;;4.18;1.40;;;;;;;15.33;55.95;99973.34;5031362;28;20056;-79
2023/03/15 11:50:34;;;;;;;3.85;1.15;;;;;;;15.85;61.89;99980.22;5031268;28;20052;-79
2023/03/15 11:53:05;;;;;;;4.22;1.20;;;;;;;16.33;60.11;99975.75;5031311;28;20096;-78